PWSweather.com
Personal Weather Stations
Station Observations
NYERIN
South Erin, Erin, NY 14838-9545

South ErinErin, NY 14838-9545

Lat: 42.150605, Lon: -76.654038

Elevation: 1663

Station Type: Davis VP Pro II+

http://southerin-ny.org/wx.php

Latest ConditionsUpdated 7:22:00 PM EST Sunday, Nov 19, 2017
Currently Today's Max Today's Min Today's Average
Temperature 32.5°F0.3°C 49.9°F9.9°C 32.1°F0.1°C 38.0°F3.3°C
Dew Point 27.0°F-2.8°C 46.9°F8.3°C 26.7°F-2.9°C 33.7°F0.9°C
Winds 8.1 mph W13.0 kmh W 16.1 mph W25.9 kmh W - 6.2 mph 10.0 kmh
Wind Gusts 11.5 mph18.5 kmh 25.3 mph40.7 kmh - -
Humidity 80% 94% 68% 85%
Pressure 29.73 in1006.8 mb 29.73 in1006.8 mb 29.09 in985.1 mb -
Precipitation - 0.08 in2.0 mm - -
Hour Temp Dew Point Humidity Winds Wind Gusts Pressure Precip Precip Rate Daily Precip Total
07:22 PM 32.5°F0.3°C 27.0°F-2.8°C 80% 8.1 mph W13.0 kmh W 11.5 mph18.5 kmh 29.73 in1006.8 mb - 0.00 in0.0 mm 0.08 in2.0 mm
07:12 PM 32.5°F0.3°C 27.6°F-2.4°C 82% 6.9 mph NW11.1 kmh NW 20.7 mph33.3 kmh 29.72 in1006.4 mb - 0.00 in0.0 mm 0.08 in2.0 mm
07:02 PM 32.6°F0.3°C 28.6°F-1.9°C 85% 4.6 mph NW7.4 kmh NW 9.2 mph14.8 kmh 29.71 in1006.1 mb - 0.00 in0.0 mm 0.08 in2.0 mm
06:52 PM 32.6°F0.3°C 28.9°F-1.7°C 86% 6.9 mph WNW11.1 kmh WNW 9.2 mph14.8 kmh 29.71 in1006.1 mb - 0.00 in0.0 mm 0.08 in2.0 mm
06:42 PM 32.8°F0.4°C 29.1°F-1.6°C 86% 3.5 mph NW5.6 kmh NW 8.1 mph13.0 kmh 29.71 in1006.1 mb - 0.00 in0.0 mm 0.08 in2.0 mm
06:32 PM 32.8°F0.4°C 29.4°F-1.4°C 87% 5.8 mph WNW9.3 kmh WNW 9.2 mph14.8 kmh 29.71 in1006.1 mb - 0.00 in0.0 mm 0.08 in2.0 mm
06:22 PM 32.6°F0.3°C 29.7°F-1.3°C 89% 2.3 mph W3.7 kmh W 3.5 mph5.6 kmh 29.70 in1005.8 mb - 0.00 in0.0 mm 0.08 in2.0 mm
06:12 PM 32.4°F0.2°C 30.0°F-1.1°C 91% 1.2 mph W1.9 kmh W 3.5 mph5.6 kmh 29.70 in1005.8 mb - 0.00 in0.0 mm 0.08 in2.0 mm
06:02 PM 32.1°F0.1°C 30.0°F-1.1°C 92% 3.5 mph WNW5.6 kmh WNW 3.5 mph5.6 kmh 29.69 in1005.4 mb - 0.00 in0.0 mm 0.08 in2.0 mm
05:52 PM 32.2°F0.1°C 29.9°F-1.2°C 91% 2.3 mph WNW3.7 kmh WNW 8.1 mph13.0 kmh 29.69 in1005.4 mb - 0.01 in0.3 mm 0.08 in2.0 mm
05:42 PM 32.2°F0.1°C 29.9°F-1.2°C 91% 4.6 mph N7.4 kmh N 8.1 mph13.0 kmh 29.68 in1005.1 mb - 0.01 in0.3 mm 0.07 in1.8 mm
05:32 PM 32.6°F0.3°C 29.7°F-1.3°C 89% 2.3 mph WNW3.7 kmh WNW 9.2 mph14.8 kmh 29.68 in1005.1 mb - 0.00 in0.0 mm 0.06 in1.5 mm
05:22 PM 32.8°F0.4°C 29.6°F-1.3°C 88% 2.3 mph WSW3.7 kmh WSW 4.6 mph7.4 kmh 29.68 in1005.1 mb - 0.00 in0.0 mm 0.06 in1.5 mm
05:12 PM 32.9°F0.5°C 29.5°F-1.4°C 87% 2.3 mph NW3.7 kmh NW 6.9 mph11.1 kmh 29.68 in1005.1 mb - 0.00 in0.0 mm 0.06 in1.5 mm
05:02 PM 33.0°F0.6°C 29.3°F-1.5°C 86% 5.8 mph WNW9.3 kmh WNW 6.9 mph11.1 kmh 29.68 in1005.1 mb - 0.00 in0.0 mm 0.06 in1.5 mm
04:52 PM 33.6°F0.9°C 29.3°F-1.5°C 84% 8.1 mph W13.0 kmh W 13.8 mph22.2 kmh 29.67 in1004.7 mb - 0.00 in0.0 mm 0.06 in1.5 mm
04:42 PM 34.3°F1.3°C 28.5°F-1.9°C 79% 1.2 mph WSW1.9 kmh WSW 3.5 mph5.6 kmh 29.66 in1004.4 mb - 0.00 in0.0 mm 0.06 in1.5 mm
04:32 PM 34.5°F1.4°C 28.3°F-2.1°C 78% 2.3 mph W3.7 kmh W 5.8 mph9.3 kmh 29.66 in1004.4 mb - 0.00 in0.0 mm 0.06 in1.5 mm
04:22 PM 34.7°F1.5°C 28.2°F-2.1°C 77% 1.2 mph NW1.9 kmh NW 2.3 mph3.7 kmh 29.66 in1004.4 mb - 0.00 in0.0 mm 0.06 in1.5 mm
04:12 PM 34.8°F1.6°C 28.3°F-2.1°C 77% 6.9 mph NW11.1 kmh NW 10.4 mph16.7 kmh 29.66 in1004.4 mb - 0.00 in0.0 mm 0.06 in1.5 mm
04:02 PM 35.1°F1.7°C 28.9°F-1.7°C 78% 3.5 mph NW5.6 kmh NW 8.1 mph13.0 kmh 29.65 in1004.1 mb - 0.00 in0.0 mm 0.06 in1.5 mm
03:52 PM 35.6°F2.0°C 28.8°F-1.8°C 76% 2.3 mph NW3.7 kmh NW 3.5 mph5.6 kmh 29.65 in1004.1 mb - 0.00 in0.0 mm 0.06 in1.5 mm
03:42 PM 36.0°F2.2°C 28.1°F-2.2°C 73% 2.3 mph NW3.7 kmh NW 2.3 mph3.7 kmh 29.64 in1003.7 mb - 0.00 in0.0 mm 0.06 in1.5 mm
03:32 PM 35.9°F2.2°C 28.1°F-2.2°C 73% 2.3 mph NW3.7 kmh NW 5.8 mph9.3 kmh 29.64 in1003.7 mb - 0.00 in0.0 mm 0.06 in1.5 mm
03:22 PM 36.0°F2.2°C 28.1°F-2.2°C 73% 4.6 mph NW7.4 kmh NW 11.5 mph18.5 kmh 29.64 in1003.7 mb - 0.00 in0.0 mm 0.06 in1.5 mm
03:12 PM 36.1°F2.3°C 28.7°F-1.8°C 74% 5.8 mph WSW9.3 kmh WSW 5.8 mph9.3 kmh 29.63 in1003.4 mb - 0.00 in0.0 mm 0.06 in1.5 mm
03:02 PM 36.7°F2.6°C 28.9°F-1.7°C 73% 10.4 mph W16.7 kmh W 17.3 mph27.8 kmh 29.63 in1003.4 mb - 0.00 in0.0 mm 0.06 in1.5 mm
02:52 PM 36.2°F2.3°C 29.0°F-1.7°C 75% 4.6 mph NW7.4 kmh NW 3.5 mph5.6 kmh 29.62 in1003.0 mb - 0.00 in0.0 mm 0.06 in1.5 mm
02:42 PM 36.1°F2.3°C 28.3°F-2.1°C 73% 3.5 mph WSW5.6 kmh WSW 10.4 mph16.7 kmh 29.62 in1003.0 mb - 0.00 in0.0 mm 0.06 in1.5 mm
02:32 PM 36.2°F2.3°C 28.7°F-1.8°C 74% 5.8 mph WNW9.3 kmh WNW 12.7 mph20.4 kmh 29.62 in1003.0 mb - 0.00 in0.0 mm 0.06 in1.5 mm
02:22 PM 36.4°F2.4°C 28.6°F-1.9°C 73% 10.4 mph NW16.7 kmh NW 16.1 mph25.9 kmh 29.61 in1002.7 mb - 0.00 in0.0 mm 0.06 in1.5 mm
02:12 PM 36.4°F2.4°C 28.6°F-1.9°C 73% 6.9 mph NW11.1 kmh NW 9.2 mph14.8 kmh 29.61 in1002.7 mb - 0.00 in0.0 mm 0.06 in1.5 mm
02:02 PM 36.6°F2.6°C 28.5°F-1.9°C 72% 8.1 mph NW13.0 kmh NW 18.4 mph29.6 kmh 29.61 in1002.7 mb - 0.00 in0.0 mm 0.06 in1.5 mm
01:52 PM 36.5°F2.5°C 28.4°F-2.0°C 72% 8.1 mph WSW13.0 kmh WSW 13.8 mph22.2 kmh 29.60 in1002.4 mb - 0.00 in0.0 mm 0.06 in1.5 mm
01:42 PM 36.1°F2.3°C 27.6°F-2.4°C 71% 4.6 mph WNW7.4 kmh WNW 16.1 mph25.9 kmh 29.61 in1002.7 mb - 0.00 in0.0 mm 0.06 in1.5 mm
01:32 PM 36.0°F2.2°C 27.2°F-2.7°C 70% 4.6 mph NW7.4 kmh NW 15.0 mph24.1 kmh 29.60 in1002.4 mb - 0.00 in0.0 mm 0.06 in1.5 mm
01:22 PM 36.1°F2.3°C 27.3°F-2.6°C 70% 6.9 mph NW11.1 kmh NW 12.7 mph20.4 kmh 29.60 in1002.4 mb - 0.00 in0.0 mm 0.06 in1.5 mm
01:12 PM 36.3°F2.4°C 26.7°F-2.9°C 68% 9.2 mph NW14.8 kmh NW 19.6 mph31.5 kmh 29.61 in1002.7 mb - 0.00 in0.0 mm 0.06 in1.5 mm
01:02 PM 36.2°F2.3°C 27.0°F-2.8°C 69% 8.1 mph WSW13.0 kmh WSW 15.0 mph24.1 kmh 29.61 in1002.7 mb - 0.00 in0.0 mm 0.06 in1.5 mm
12:52 PM 36.0°F2.2°C 26.8°F-2.9°C 69% 5.8 mph WNW9.3 kmh WNW 19.6 mph31.5 kmh 29.60 in1002.4 mb - 0.00 in0.0 mm 0.06 in1.5 mm
12:42 PM 35.9°F2.2°C 27.1°F-2.7°C 70% 10.4 mph NW16.7 kmh NW 16.1 mph25.9 kmh 29.59 in1002.0 mb - 0.00 in0.0 mm 0.06 in1.5 mm
12:32 PM 35.9°F2.2°C 27.4°F-2.6°C 71% 9.2 mph NW14.8 kmh NW 12.7 mph20.4 kmh 29.59 in1002.0 mb - 0.00 in0.0 mm 0.06 in1.5 mm
12:22 PM 35.2°F1.8°C 28.7°F-1.8°C 77% 9.2 mph WSW14.8 kmh WSW 17.3 mph27.8 kmh 29.59 in1002.0 mb - 0.00 in0.0 mm 0.06 in1.5 mm
12:12 PM 34.8°F1.6°C 29.2°F-1.6°C 80% 10.4 mph NW16.7 kmh NW 11.5 mph18.5 kmh 29.58 in1001.7 mb - 0.00 in0.0 mm 0.06 in1.5 mm
12:02 PM 34.3°F1.3°C 30.0°F-1.1°C 84% 3.5 mph NW5.6 kmh NW 10.4 mph16.7 kmh 29.58 in1001.7 mb - 0.00 in0.0 mm 0.06 in1.5 mm
11:52 AM 34.1°F1.2°C 29.8°F-1.2°C 84% 4.6 mph NW7.4 kmh NW 4.6 mph7.4 kmh 29.58 in1001.7 mb - 0.00 in0.0 mm 0.06 in1.5 mm
11:42 AM 33.8°F1.0°C 30.6°F-0.8°C 88% 1.2 mph NNW1.9 kmh NNW 3.5 mph5.6 kmh 29.58 in1001.7 mb - 0.00 in0.0 mm 0.06 in1.5 mm
11:32 AM 34.1°F1.2°C 30.4°F-0.9°C 86% 5.8 mph NW9.3 kmh NW 10.4 mph16.7 kmh 29.58 in1001.7 mb - 0.00 in0.0 mm 0.06 in1.5 mm
11:22 AM 34.1°F1.2°C 30.3°F-0.9°C 86% 8.1 mph NW13.0 kmh NW 11.5 mph18.5 kmh 29.57 in1001.4 mb - 0.00 in0.0 mm 0.06 in1.5 mm
11:12 AM 33.9°F1.1°C 30.4°F-0.9°C 87% 1.2 mph NW1.9 kmh NW 13.8 mph22.2 kmh 29.57 in1001.4 mb - 0.00 in0.0 mm 0.06 in1.5 mm
11:02 AM 34.3°F1.3°C 30.2°F-1.0°C 85% 5.8 mph NW9.3 kmh NW 3.5 mph5.6 kmh 29.57 in1001.4 mb - 0.00 in0.0 mm 0.06 in1.5 mm
10:52 AM 34.8°F1.6°C 29.8°F-1.2°C 82% 4.6 mph W7.4 kmh W 6.9 mph11.1 kmh 29.57 in1001.4 mb - 0.00 in0.0 mm 0.06 in1.5 mm
10:42 AM 34.9°F1.6°C 29.3°F-1.5°C 80% 9.2 mph W14.8 kmh W 12.7 mph20.4 kmh 29.57 in1001.4 mb - 0.00 in0.0 mm 0.06 in1.5 mm
10:32 AM 34.8°F1.6°C 29.6°F-1.3°C 81% 4.6 mph NNW7.4 kmh NNW 8.1 mph13.0 kmh 29.56 in1001.0 mb - 0.00 in0.0 mm 0.06 in1.5 mm
10:22 AM 34.8°F1.6°C 29.6°F-1.3°C 81% 5.8 mph NW9.3 kmh NW 11.5 mph18.5 kmh 29.55 in1000.7 mb - 0.00 in0.0 mm 0.06 in1.5 mm
10:12 AM 34.8°F1.6°C 29.3°F-1.5°C 80% 9.2 mph NW14.8 kmh NW 16.1 mph25.9 kmh 29.55 in1000.7 mb - 0.00 in0.0 mm 0.06 in1.5 mm
10:02 AM 34.8°F1.6°C 30.1°F-1.1°C 83% 11.5 mph NNW18.5 kmh NNW 13.8 mph22.2 kmh 29.54 in1000.3 mb - 0.00 in0.0 mm 0.06 in1.5 mm
09:52 AM 34.6°F1.4°C 30.9°F-0.6°C 86% 5.8 mph WNW9.3 kmh WNW 9.2 mph14.8 kmh 29.54 in1000.3 mb - 0.00 in0.0 mm 0.06 in1.5 mm
09:42 AM 34.6°F1.4°C 30.9°F-0.6°C 86% 6.9 mph NW11.1 kmh NW 11.5 mph18.5 kmh 29.53 in1000.0 mb - 0.00 in0.0 mm 0.06 in1.5 mm
09:32 AM 34.5°F1.4°C 31.3°F-0.4°C 88% 9.2 mph NW14.8 kmh NW 19.6 mph31.5 kmh 29.52 in999.7 mb - 0.00 in0.0 mm 0.06 in1.5 mm
09:22 AM 34.5°F1.4°C 31.3°F-0.4°C 88% 5.8 mph W9.3 kmh W 11.5 mph18.5 kmh 29.51 in999.3 mb - 0.00 in0.0 mm 0.06 in1.5 mm
09:12 AM 34.5°F1.4°C 31.3°F-0.4°C 88% 3.5 mph NW5.6 kmh NW 11.5 mph18.5 kmh 29.51 in999.3 mb - 0.00 in0.0 mm 0.06 in1.5 mm
09:02 AM 34.5°F1.4°C 31.1°F-0.5°C 87% 6.9 mph NW11.1 kmh NW 9.2 mph14.8 kmh 29.50 in999.0 mb - 0.00 in0.0 mm 0.06 in1.5 mm
08:52 AM 34.6°F1.4°C 31.1°F-0.5°C 87% 5.8 mph NNW9.3 kmh NNW 11.5 mph18.5 kmh 29.49 in998.6 mb - 0.00 in0.0 mm 0.06 in1.5 mm
08:42 AM 34.6°F1.4°C 30.8°F-0.7°C 86% 3.5 mph NNW5.6 kmh NNW 8.1 mph13.0 kmh 29.48 in998.3 mb - 0.00 in0.0 mm 0.06 in1.5 mm
08:32 AM 34.6°F1.4°C 30.8°F-0.7°C 86% 5.8 mph NW9.3 kmh NW 15.0 mph24.1 kmh 29.48 in998.3 mb - 0.00 in0.0 mm 0.06 in1.5 mm
08:22 AM 34.4°F1.3°C 30.6°F-0.8°C 86% 6.9 mph NW11.1 kmh NW 8.1 mph13.0 kmh 29.48 in998.3 mb - 0.00 in0.0 mm 0.06 in1.5 mm
08:12 AM 34.3°F1.3°C 30.8°F-0.7°C 87% 5.8 mph W9.3 kmh W 8.1 mph13.0 kmh 29.47 in998.0 mb - 0.00 in0.0 mm 0.06 in1.5 mm
08:02 AM 34.3°F1.3°C 30.5°F-0.8°C 86% 4.6 mph W7.4 kmh W 12.7 mph20.4 kmh 29.46 in997.6 mb - 0.00 in0.0 mm 0.06 in1.5 mm
07:52 AM 34.4°F1.3°C 30.4°F-0.9°C 85% 6.9 mph W11.1 kmh W 11.5 mph18.5 kmh 29.45 in997.3 mb - 0.00 in0.0 mm 0.06 in1.5 mm
07:42 AM 34.5°F1.4°C 31.3°F-0.4°C 88% 4.6 mph NNW7.4 kmh NNW 10.4 mph16.7 kmh 29.43 in996.6 mb - 0.00 in0.0 mm 0.06 in1.5 mm
07:32 AM 34.6°F1.4°C 31.1°F-0.5°C 87% 4.6 mph WNW7.4 kmh WNW 9.2 mph14.8 kmh 29.42 in996.3 mb - 0.00 in0.0 mm 0.06 in1.5 mm
07:22 AM 34.6°F1.4°C 31.4°F-0.3°C 88% 4.6 mph NW7.4 kmh NW 11.5 mph18.5 kmh 29.41 in995.9 mb - 0.00 in0.0 mm 0.06 in1.5 mm
07:12 AM 34.7°F1.5°C 31.5°F-0.3°C 88% 5.8 mph NW9.3 kmh NW 15.0 mph24.1 kmh 29.40 in995.6 mb - 0.00 in0.0 mm 0.06 in1.5 mm
07:02 AM 34.8°F1.6°C 31.6°F-0.2°C 88% 6.9 mph NW11.1 kmh NW 10.4 mph16.7 kmh 29.39 in995.3 mb - 0.00 in0.0 mm 0.06 in1.5 mm
06:52 AM 34.7°F1.5°C 31.8°F-0.1°C 89% 5.8 mph NW9.3 kmh NW 11.5 mph18.5 kmh 29.37 in994.6 mb - 0.00 in0.0 mm 0.06 in1.5 mm
06:42 AM 34.9°F1.6°C 32.3°F0.2°C 90% 8.1 mph NW13.0 kmh NW 10.4 mph16.7 kmh 29.36 in994.2 mb - 0.00 in0.0 mm 0.06 in1.5 mm
06:32 AM 35.3°F1.8°C 32.4°F0.2°C 89% 5.8 mph NW9.3 kmh NW 16.1 mph25.9 kmh 29.34 in993.6 mb - 0.00 in0.0 mm 0.06 in1.5 mm
06:22 AM 35.6°F2.0°C 32.7°F0.4°C 89% 11.5 mph W18.5 kmh W 19.6 mph31.5 kmh 29.33 in993.2 mb - 0.00 in0.0 mm 0.06 in1.5 mm
06:12 AM 35.9°F2.2°C 33.0°F0.6°C 89% 6.9 mph NW11.1 kmh NW 16.1 mph25.9 kmh 29.32 in992.9 mb - 0.00 in0.0 mm 0.06 in1.5 mm
06:02 AM 36.7°F2.6°C 33.7°F0.9°C 89% 8.1 mph NW13.0 kmh NW 16.1 mph25.9 kmh 29.30 in992.2 mb - 0.00 in0.0 mm 0.06 in1.5 mm
05:52 AM 37.8°F3.2°C 35.4°F1.9°C 91% 16.1 mph W25.9 kmh W 25.3 mph40.7 kmh 29.28 in991.5 mb - 0.00 in0.0 mm 0.06 in1.5 mm
05:42 AM 38.1°F3.4°C 35.7°F2.1°C 91% 9.2 mph W14.8 kmh W 11.5 mph18.5 kmh 29.27 in991.2 mb - 0.00 in0.0 mm 0.06 in1.5 mm
05:32 AM 38.5°F3.6°C 35.8°F2.1°C 90% 6.9 mph WNW11.1 kmh WNW 12.7 mph20.4 kmh 29.27 in991.2 mb - 0.00 in0.0 mm 0.06 in1.5 mm
05:22 AM 39.1°F3.9°C 36.1°F2.3°C 89% 10.4 mph NW16.7 kmh NW 17.3 mph27.8 kmh 29.26 in990.9 mb - 0.00 in0.0 mm 0.06 in1.5 mm
05:12 AM 40.3°F4.6°C 37.6°F3.1°C 90% 11.5 mph W18.5 kmh W 21.9 mph35.2 kmh 29.25 in990.5 mb - 0.01 in0.3 mm 0.06 in1.5 mm
05:02 AM 41.7°F5.4°C 38.7°F3.7°C 89% 9.2 mph WNW14.8 kmh WNW 13.8 mph22.2 kmh 29.22 in989.5 mb - 0.00 in0.0 mm 0.05 in1.3 mm
04:52 AM 44.4°F6.9°C 40.1°F4.5°C 85% 15.0 mph NW24.1 kmh NW 19.6 mph31.5 kmh 29.19 in988.5 mb - 0.02 in0.5 mm 0.05 in1.3 mm
04:42 AM 48.4°F9.1°C 45.6°F7.6°C 90% 4.6 mph WNW7.4 kmh WNW 11.5 mph18.5 kmh 29.17 in987.8 mb - 0.03 in0.8 mm 0.04 in1.0 mm
04:32 AM 49.2°F9.6°C 46.4°F8.0°C 90% 5.8 mph SW9.3 kmh SW 9.2 mph14.8 kmh 29.14 in986.8 mb - 0.01 in0.3 mm 0.01 in0.3 mm
04:22 AM 49.8°F9.9°C 46.7°F8.2°C 89% 8.1 mph SW13.0 kmh SW 15.0 mph24.1 kmh 29.13 in986.5 mb - 0.00 in0.0 mm 0.00 in0.0 mm
04:12 AM 49.9°F9.9°C 46.8°F8.2°C 89% 6.9 mph WSW11.1 kmh WSW 12.7 mph20.4 kmh 29.12 in986.1 mb - 0.00 in0.0 mm 0.00 in0.0 mm
04:02 AM 49.7°F9.8°C 46.9°F8.3°C 90% 2.3 mph SSW3.7 kmh SSW 3.5 mph5.6 kmh 29.11 in985.8 mb - 0.00 in0.0 mm 0.00 in0.0 mm
03:52 AM 49.3°F9.6°C 46.5°F8.1°C 90% 3.5 mph SSW5.6 kmh SSW 11.5 mph18.5 kmh 29.11 in985.8 mb - 0.00 in0.0 mm 0.00 in0.0 mm
03:42 AM 49.0°F9.4°C 46.5°F8.1°C 91% 5.8 mph SW9.3 kmh SW 11.5 mph18.5 kmh 29.11 in985.8 mb - 0.00 in0.0 mm 0.00 in0.0 mm
03:32 AM 48.7°F9.3°C 46.2°F7.9°C 91% 4.6 mph S7.4 kmh S 10.4 mph16.7 kmh 29.10 in985.4 mb - 0.00 in0.0 mm 0.00 in0.0 mm
03:22 AM 48.7°F9.3°C 46.2°F7.9°C 91% 5.8 mph S9.3 kmh S 11.5 mph18.5 kmh 29.09 in985.1 mb - 0.00 in0.0 mm 0.00 in0.0 mm
03:12 AM 48.6°F9.2°C 46.1°F7.8°C 91% 5.8 mph S9.3 kmh S 11.5 mph18.5 kmh 29.10 in985.4 mb - 0.00 in0.0 mm 0.00 in0.0 mm
03:02 AM 48.4°F9.1°C 45.9°F7.7°C 91% 5.8 mph SSE9.3 kmh SSE 16.1 mph25.9 kmh 29.10 in985.4 mb - 0.00 in0.0 mm 0.00 in0.0 mm
02:52 AM 48.2°F9.0°C 45.7°F7.6°C 91% 6.9 mph SSE11.1 kmh SSE 13.8 mph22.2 kmh 29.10 in985.4 mb - 0.00 in0.0 mm 0.00 in0.0 mm
02:42 AM 47.6°F8.7°C 45.4°F7.4°C 92% 4.6 mph S7.4 kmh S 8.1 mph13.0 kmh 29.11 in985.8 mb - 0.00 in0.0 mm 0.00 in0.0 mm
02:32 AM 47.2°F8.4°C 45.0°F7.2°C 92% 6.9 mph S11.1 kmh S 10.4 mph16.7 kmh 29.12 in986.1 mb - 0.00 in0.0 mm 0.00 in0.0 mm
02:22 AM 46.5°F8.1°C 44.5°F6.9°C 93% 5.8 mph S9.3 kmh S 9.2 mph14.8 kmh 29.12 in986.1 mb - 0.00 in0.0 mm 0.00 in0.0 mm
02:12 AM 46.2°F7.9°C 44.3°F6.8°C 93% 5.8 mph S9.3 kmh S 11.5 mph18.5 kmh 29.14 in986.8 mb - 0.00 in0.0 mm 0.00 in0.0 mm
02:02 AM 45.9°F7.7°C 44.0°F6.7°C 93% 3.5 mph SSE5.6 kmh SSE 10.4 mph16.7 kmh 29.13 in986.5 mb - 0.00 in0.0 mm 0.00 in0.0 mm
01:52 AM 45.4°F7.4°C 43.5°F6.4°C 93% 4.6 mph SSE7.4 kmh SSE 8.1 mph13.0 kmh 29.13 in986.5 mb - 0.00 in0.0 mm 0.00 in0.0 mm
01:42 AM 45.2°F7.3°C 43.3°F6.3°C 93% 4.6 mph SSE7.4 kmh SSE 11.5 mph18.5 kmh 29.12 in986.1 mb - 0.00 in0.0 mm 0.00 in0.0 mm
01:32 AM 45.0°F7.2°C 43.1°F6.2°C 93% 3.5 mph S5.6 kmh S 9.2 mph14.8 kmh 29.13 in986.5 mb - 0.00 in0.0 mm 0.00 in0.0 mm
01:22 AM 44.9°F7.2°C 43.0°F6.1°C 93% 8.1 mph S13.0 kmh S 10.4 mph16.7 kmh 29.14 in986.8 mb - 0.00 in0.0 mm 0.00 in0.0 mm
01:12 AM 44.7°F7.1°C 42.8°F6.0°C 93% 4.6 mph S7.4 kmh S 9.2 mph14.8 kmh 29.16 in987.5 mb - 0.00 in0.0 mm 0.00 in0.0 mm
01:02 AM 44.7°F7.1°C 42.8°F6.0°C 93% 6.9 mph SSE11.1 kmh SSE 10.4 mph16.7 kmh 29.17 in987.8 mb - 0.00 in0.0 mm 0.00 in0.0 mm
12:52 AM 44.3°F6.8°C 42.7°F5.9°C 94% 9.2 mph SSE14.8 kmh SSE 11.5 mph18.5 kmh 29.17 in987.8 mb - 0.00 in0.0 mm 0.00 in0.0 mm
12:42 AM 43.8°F6.6°C 42.2°F5.7°C 94% 6.9 mph S11.1 kmh S 11.5 mph18.5 kmh 29.17 in987.8 mb - 0.00 in0.0 mm 0.00 in0.0 mm
12:32 AM 43.6°F6.4°C 42.0°F5.6°C 94% 8.1 mph SSE13.0 kmh SSE 15.0 mph24.1 kmh 29.17 in987.8 mb - 0.00 in0.0 mm 0.00 in0.0 mm
12:22 AM 43.6°F6.4°C 42.0°F5.6°C 94% 11.5 mph S18.5 kmh S 23.0 mph37.0 kmh 29.19 in988.5 mb - 0.00 in0.0 mm 0.00 in0.0 mm
12:12 AM 43.5°F6.4°C 41.9°F5.5°C 94% 10.4 mph SSE16.7 kmh SSE 15.0 mph24.1 kmh 29.20 in988.8 mb - 0.00 in0.0 mm 0.00 in0.0 mm
12:02 AM 43.3°F6.3°C 41.7°F5.4°C 94% 8.1 mph SSE13.0 kmh SSE 20.7 mph33.3 kmh 29.20 in988.8 mb - 0.00 in0.0 mm 0.00 in0.0 mm